createdAt,value
2024-02-22T00:01:13.383Z,8.00
2024-02-22T00:03:59.120Z,8.00
2024-02-22T00:06:44.472Z,8.00
2024-02-22T00:09:29.896Z,8.00
2024-02-22T00:12:15.576Z,8.00
2024-02-22T00:15:01.111Z,8.00
2024-02-22T00:17:47.216Z,8.00
2024-02-22T00:20:32.822Z,8.00
2024-02-22T00:23:18.382Z,8.00
2024-02-22T00:26:04.178Z,7.90
2024-02-22T00:28:49.752Z,7.90
2024-02-22T00:31:35.220Z,7.90
2024-02-22T00:34:20.614Z,7.80
2024-02-22T00:37:06.106Z,7.80
2024-02-22T00:39:51.597Z,7.80
2024-02-22T00:42:37.275Z,7.70
2024-02-22T00:45:22.787Z,7.70
2024-02-22T00:48:08.518Z,7.70
2024-02-22T00:50:54.320Z,7.70
2024-02-22T00:53:40.042Z,7.60
2024-02-22T00:56:25.513Z,7.60
2024-02-22T00:59:11.195Z,7.60
2024-02-22T01:01:56.708Z,7.60
2024-02-22T01:04:43.975Z,7.60
2024-02-22T01:07:29.578Z,7.60
2024-02-22T01:10:14.978Z,7.60
2024-02-22T01:13:00.496Z,7.60
2024-02-22T01:15:45.948Z,7.60
2024-02-22T01:18:31.786Z,7.60
2024-02-22T01:21:17.281Z,7.60
2024-02-22T01:24:02.821Z,7.60
2024-02-22T01:26:48.341Z,7.60
2024-02-22T01:29:33.917Z,7.50
2024-02-22T01:32:19.629Z,7.60
2024-02-22T01:35:05.410Z,7.60
2024-02-22T01:37:50.956Z,7.60
2024-02-22T01:40:36.438Z,7.50
2024-02-22T01:43:21.899Z,7.50
2024-02-22T01:46:08.951Z,7.50
2024-02-22T01:48:55.694Z,7.60
2024-02-22T01:51:41.106Z,7.50
2024-02-22T01:54:27.462Z,7.50
2024-02-22T01:57:13.285Z,7.50
2024-02-22T01:59:58.954Z,7.50
2024-02-22T02:02:45.728Z,7.50
2024-02-22T02:05:31.160Z,7.50
2024-02-22T02:08:16.845Z,7.50
2024-02-22T02:11:02.461Z,7.50
2024-02-22T02:13:47.646Z,7.50
2024-02-22T02:16:33.262Z,7.50
2024-02-22T02:19:21.004Z,7.50
2024-02-22T02:22:38.001Z,7.50
2024-02-22T02:25:24.876Z,7.50
2024-02-22T02:28:10.342Z,7.50
2024-02-22T02:30:55.879Z,7.50
2024-02-22T02:33:41.900Z,7.50
2024-02-22T02:36:27.525Z,7.50
2024-02-22T02:39:13.481Z,7.50
2024-02-22T02:42:00.309Z,7.50
2024-02-22T02:44:46.406Z,7.50
2024-02-22T02:47:31.746Z,7.50
2024-02-22T02:50:17.132Z,7.50
2024-02-22T02:53:02.766Z,7.50
2024-02-22T02:55:48.705Z,7.50
2024-02-22T02:58:33.918Z,7.50
2024-02-22T03:01:19.677Z,7.50
2024-02-22T03:04:05.246Z,7.50
2024-02-22T03:06:50.744Z,7.50
2024-02-22T03:09:36.219Z,7.50
2024-02-22T03:12:21.566Z,7.50
2024-02-22T03:15:08.697Z,7.50
2024-02-22T03:17:54.350Z,7.50
2024-02-22T03:20:40.459Z,7.50
2024-02-22T03:23:26.639Z,7.50
2024-02-22T03:26:12.052Z,7.50
2024-02-22T03:28:57.588Z,7.50
2024-02-22T03:31:44.339Z,7.50
2024-02-22T03:34:30.055Z,7.50
2024-02-22T03:37:15.613Z,7.60
2024-02-22T03:40:01.158Z,7.50
2024-02-22T03:42:46.731Z,7.50
2024-02-22T03:45:32.220Z,7.50
2024-02-22T03:48:17.863Z,7.50
2024-02-22T03:51:04.522Z,7.50
2024-02-22T03:53:51.110Z,7.50
2024-02-22T03:56:37.304Z,7.50
2024-02-22T03:59:22.643Z,7.50
2024-02-22T04:02:08.257Z,7.50
2024-02-22T04:04:55.163Z,7.50
2024-02-22T04:07:41.387Z,7.50
2024-02-22T04:10:26.751Z,7.50
2024-02-22T04:13:12.774Z,7.50
2024-02-22T04:15:58.302Z,7.50
2024-02-22T04:18:44.947Z,7.50
2024-02-22T04:21:30.369Z,7.50
2024-02-22T04:24:15.704Z,7.50
2024-02-22T04:27:01.463Z,7.50
2024-02-22T04:29:47.081Z,7.50
2024-02-22T04:32:32.757Z,7.50
2024-02-22T04:35:18.368Z,7.50
2024-02-22T04:38:04.079Z,7.50
2024-02-22T04:40:49.815Z,7.50
2024-02-22T04:43:35.625Z,7.50
2024-02-22T04:46:21.260Z,7.50
2024-02-22T04:49:07.534Z,7.60
2024-02-22T04:51:53.280Z,7.60
2024-02-22T04:54:42.643Z,7.60
2024-02-22T04:57:31.384Z,7.50
2024-02-22T05:00:16.879Z,7.60
2024-02-22T05:03:02.983Z,7.60
2024-02-22T05:05:48.302Z,7.60
2024-02-22T05:08:36.543Z,7.60
2024-02-22T05:11:23.666Z,7.60
2024-02-22T05:14:10.365Z,7.70
2024-02-22T05:16:55.721Z,7.70
2024-02-22T05:19:41.801Z,7.60
2024-02-22T05:22:27.249Z,7.60
2024-02-22T05:25:12.747Z,7.80
2024-02-22T05:27:58.800Z,7.80
2024-02-22T05:30:44.488Z,7.80
2024-02-22T05:33:30.311Z,7.80
2024-02-22T05:36:20.656Z,7.80
2024-02-22T05:39:08.216Z,7.80
2024-02-22T05:41:53.711Z,7.80
2024-02-22T05:44:39.270Z,7.80
2024-02-22T05:47:24.955Z,7.80
2024-02-22T05:50:10.822Z,7.80
2024-02-22T05:52:56.360Z,7.80
2024-02-22T05:55:41.811Z,7.80
2024-02-22T05:58:27.262Z,7.80
2024-02-22T06:01:15.737Z,7.90
2024-02-22T06:04:02.502Z,7.80
2024-02-22T06:06:47.982Z,7.80
2024-02-22T06:09:33.465Z,7.80
2024-02-22T06:12:18.880Z,7.80
2024-02-22T06:15:05.154Z,7.80
2024-02-22T06:17:50.956Z,7.80
2024-02-22T06:20:36.652Z,7.80
2024-02-22T06:23:22.148Z,7.90
2024-02-22T06:26:07.745Z,7.80
2024-02-22T06:28:53.326Z,7.80
2024-02-22T06:31:38.827Z,7.90
2024-02-22T06:34:24.269Z,8.00
2024-02-22T06:37:11.162Z,8.00
2024-02-22T06:39:56.361Z,8.00
2024-02-22T06:42:42.452Z,8.00
2024-02-22T06:45:28.303Z,7.90
2024-02-22T06:48:14.048Z,7.90
2024-02-22T06:51:00.563Z,8.00
2024-02-22T06:53:45.700Z,8.00
2024-02-22T06:56:31.244Z,8.00
2024-02-22T06:59:18.099Z,8.00
2024-02-22T07:02:06.361Z,8.10
2024-02-22T07:04:51.954Z,8.20
2024-02-22T07:07:37.530Z,8.20
2024-02-22T07:10:23.021Z,8.20
2024-02-22T07:13:08.361Z,8.20
2024-02-22T07:15:53.789Z,8.20
2024-02-22T07:18:40.553Z,8.20
2024-02-22T07:21:36.136Z,8.20
2024-02-22T07:24:21.721Z,8.30
2024-02-22T07:27:08.448Z,8.30
2024-02-22T07:29:53.836Z,8.30
2024-02-22T07:32:39.370Z,8.30
2024-02-22T07:35:24.780Z,8.40
2024-02-22T07:38:11.269Z,8.40
2024-02-22T07:40:56.977Z,8.40
2024-02-22T07:43:46.463Z,8.50
2024-02-22T07:46:31.991Z,8.50
2024-02-22T07:49:20.626Z,8.50
2024-02-22T07:52:07.404Z,8.50
2024-02-22T07:54:52.579Z,8.40
2024-02-22T07:57:38.195Z,8.50
2024-02-22T08:00:23.674Z,8.50
2024-02-22T08:03:10.546Z,8.50
2024-02-22T08:05:55.906Z,8.50
2024-02-22T08:08:41.448Z,8.50
2024-02-22T08:11:28.523Z,8.60
2024-02-22T08:14:14.274Z,8.60
2024-02-22T08:16:59.825Z,8.60
2024-02-22T08:19:45.794Z,8.60
2024-02-22T08:22:31.415Z,8.60
2024-02-22T08:25:16.971Z,8.60
2024-02-22T08:28:07.454Z,8.70
2024-02-22T08:30:53.704Z,8.70
2024-02-22T08:33:39.437Z,8.80
2024-02-22T08:36:24.940Z,8.80
2024-02-22T08:39:10.599Z,8.90
2024-02-22T08:41:55.847Z,9.00
2024-02-22T08:44:41.286Z,9.00
2024-02-22T08:47:27.050Z,9.20
2024-02-22T08:50:16.374Z,9.20
2024-02-22T08:53:02.099Z,9.40
2024-02-22T08:55:47.538Z,9.50
2024-02-22T08:58:34.525Z,9.60
2024-02-22T09:01:25.135Z,9.70
2024-02-22T09:04:10.506Z,9.90
2024-02-22T09:06:56.248Z,10.00
2024-02-22T09:09:41.430Z,10.10
2024-02-22T09:12:27.023Z,10.30
2024-02-22T09:15:13.001Z,10.40
2024-02-22T09:17:58.413Z,10.40
2024-02-22T09:20:43.867Z,10.40
2024-02-22T09:23:30.420Z,10.20
2024-02-22T09:26:15.981Z,10.30
2024-02-22T09:29:01.383Z,10.30
2024-02-22T09:31:46.950Z,10.30
2024-02-22T09:34:32.559Z,10.20
2024-02-22T09:37:17.979Z,10.20
2024-02-22T09:40:03.779Z,10.20
2024-02-22T09:42:49.576Z,10.00
2024-02-22T09:45:35.680Z,10.00
2024-02-22T09:48:21.097Z,9.80
2024-02-22T09:51:07.214Z,9.80
2024-02-22T09:53:53.531Z,9.70
2024-02-22T09:56:42.181Z,9.70
2024-02-22T09:59:27.876Z,9.70
2024-02-22T10:02:14.343Z,9.70
2024-02-22T10:05:01.556Z,9.80
2024-02-22T10:07:47.229Z,9.90
2024-02-22T10:10:33.665Z,10.00
2024-02-22T10:13:21.629Z,10.10
2024-02-22T10:16:15.743Z,10.20
2024-02-22T10:19:02.057Z,10.30
2024-02-22T10:21:47.401Z,10.40
2024-02-22T10:24:33.553Z,10.50
2024-02-22T10:27:18.850Z,10.50
2024-02-22T10:30:11.880Z,10.60
2024-02-22T10:32:57.524Z,10.70
2024-02-22T10:35:45.793Z,10.90
2024-02-22T10:38:31.353Z,10.90
2024-02-22T10:41:16.964Z,11.00
2024-02-22T10:44:07.199Z,11.10
2024-02-22T10:46:53.900Z,11.10
2024-02-22T10:49:40.194Z,11.10
2024-02-22T10:52:28.598Z,11.30
2024-02-22T10:55:17.930Z,11.30
2024-02-22T10:58:05.005Z,11.30
2024-02-22T11:00:53.425Z,11.40
2024-02-22T11:03:39.654Z,11.50
2024-02-22T11:06:24.827Z,11.50
2024-02-22T11:09:24.126Z,11.50
2024-02-22T11:12:09.822Z,11.50
2024-02-22T11:14:55.465Z,11.40
2024-02-22T11:17:54.808Z,11.40
2024-02-22T11:20:40.470Z,11.50
2024-02-22T11:23:35.236Z,11.40
2024-02-22T11:26:20.747Z,11.40
2024-02-22T11:29:06.636Z,11.30
2024-02-22T11:31:52.221Z,11.30
2024-02-22T11:34:37.734Z,11.40
2024-02-22T11:37:23.310Z,11.50
2024-02-22T11:40:10.890Z,11.60
2024-02-22T11:42:57.457Z,11.70
2024-02-22T11:45:43.678Z,11.60
2024-02-22T11:48:29.938Z,11.50
2024-02-22T11:51:15.366Z,11.60
2024-02-22T11:54:00.977Z,11.50
2024-02-22T11:56:46.899Z,11.50
2024-02-22T11:59:33.175Z,11.50
2024-02-22T12:02:20.957Z,11.50
2024-02-22T12:05:11.717Z,11.40
2024-02-22T12:07:57.842Z,11.50
2024-02-22T12:10:43.114Z,11.60
2024-02-22T12:13:28.477Z,11.70
2024-02-22T12:16:14.087Z,11.70
2024-02-22T12:19:00.617Z,11.70
2024-02-22T12:21:50.071Z,11.70
2024-02-22T12:24:37.974Z,11.70
2024-02-22T12:27:23.558Z,11.60
2024-02-22T12:30:09.384Z,11.50
2024-02-22T12:32:55.338Z,11.60
2024-02-22T12:35:40.855Z,11.70
2024-02-22T12:38:26.702Z,11.90
2024-02-22T12:41:16.140Z,11.90
2024-02-22T12:44:01.441Z,11.90
2024-02-22T12:46:49.218Z,11.90
2024-02-22T12:49:34.442Z,11.90
2024-02-22T12:52:19.932Z,11.80
2024-02-22T12:55:06.007Z,11.70
2024-02-22T12:57:51.484Z,11.50
2024-02-22T13:00:37.172Z,11.50
2024-02-22T13:03:22.974Z,11.50
2024-02-22T13:06:08.391Z,11.50
2024-02-22T13:08:54.244Z,11.50
2024-02-22T13:11:40.083Z,11.50
2024-02-22T13:14:25.903Z,11.50
2024-02-22T13:17:11.193Z,11.50
2024-02-22T13:19:56.605Z,11.50
2024-02-22T13:22:42.250Z,11.50
2024-02-22T13:25:28.384Z,11.50
2024-02-22T13:28:13.832Z,11.50
2024-02-22T13:30:59.295Z,11.50
2024-02-22T13:33:49.160Z,11.50
2024-02-22T13:36:35.579Z,11.70
2024-02-22T13:39:21.557Z,11.70
2024-02-22T13:42:07.545Z,11.90
2024-02-22T13:44:53.054Z,11.90
2024-02-22T13:47:38.907Z,11.90
2024-02-22T13:50:24.927Z,12.00
2024-02-22T13:53:10.271Z,12.00
2024-02-22T13:55:55.949Z,12.00
2024-02-22T13:58:41.449Z,12.00
2024-02-22T14:01:26.960Z,12.00
2024-02-22T14:04:13.611Z,12.00
2024-02-22T14:06:59.628Z,12.00
2024-02-22T14:09:45.048Z,12.00
2024-02-22T14:12:30.852Z,12.00
2024-02-22T14:15:16.584Z,11.90
2024-02-22T14:18:02.308Z,11.90
2024-02-22T14:20:47.612Z,11.90
2024-02-22T14:23:33.516Z,11.80
2024-02-22T14:26:18.858Z,11.80
2024-02-22T14:29:04.992Z,11.70
2024-02-22T14:31:50.597Z,11.70
2024-02-22T14:34:37.373Z,11.70
2024-02-22T14:37:22.542Z,11.70
2024-02-22T14:40:12.797Z,11.80
2024-02-22T14:42:58.282Z,12.00
2024-02-22T14:45:44.236Z,12.10
2024-02-22T14:48:29.596Z,12.30
2024-02-22T14:51:15.119Z,12.40
2024-02-22T14:54:00.589Z,12.50
2024-02-22T14:56:51.065Z,12.50
2024-02-22T14:59:37.478Z,12.40
2024-02-22T15:02:23.062Z,12.20
2024-02-22T15:05:08.634Z,12.20
2024-02-22T15:07:54.639Z,12.10
2024-02-22T15:10:40.179Z,12.10
2024-02-22T15:13:25.585Z,12.10
2024-02-22T15:16:11.813Z,12.20
2024-02-22T15:18:57.587Z,12.10
2024-02-22T15:21:46.251Z,12.10
2024-02-22T15:24:32.767Z,12.00
2024-02-22T15:27:18.077Z,11.90
2024-02-22T15:30:04.225Z,11.90
2024-02-22T15:32:51.369Z,11.90
2024-02-22T15:35:36.877Z,11.90
2024-02-22T15:38:22.593Z,11.90
2024-02-22T15:41:07.930Z,11.80
2024-02-22T15:43:55.655Z,11.70
2024-02-22T15:46:41.525Z,11.70
2024-02-22T15:49:26.883Z,11.70
2024-02-22T15:52:12.320Z,11.70
2024-02-22T15:54:58.260Z,11.70
2024-02-22T15:57:44.416Z,11.60
2024-02-22T16:00:30.473Z,11.70
2024-02-22T16:03:15.975Z,11.60
2024-02-22T16:06:01.549Z,11.60
2024-02-22T16:08:47.593Z,11.60
2024-02-22T16:11:33.208Z,11.60
2024-02-22T16:14:18.470Z,11.60
2024-02-22T16:17:03.972Z,11.50
2024-02-22T16:19:49.347Z,11.50
2024-02-22T16:22:34.812Z,11.50
2024-02-22T16:25:21.540Z,11.50
2024-02-22T16:28:08.228Z,11.50
2024-02-22T16:30:55.616Z,11.50
2024-02-22T16:33:41.308Z,11.40
2024-02-22T16:36:26.860Z,11.50
2024-02-22T16:39:15.893Z,11.40
2024-02-22T16:42:04.975Z,11.40
2024-02-22T16:44:50.055Z,11.50
2024-02-22T16:47:37.323Z,11.50
2024-02-22T16:50:22.798Z,11.50
2024-02-22T16:53:08.432Z,11.40
2024-02-22T16:55:54.111Z,11.40
2024-02-22T16:58:39.669Z,11.40
2024-02-22T17:01:25.730Z,11.30
2024-02-22T17:04:11.292Z,11.30
2024-02-22T17:07:00.007Z,11.30
2024-02-22T17:09:45.261Z,11.30
2024-02-22T17:12:30.934Z,11.30
2024-02-22T17:15:16.247Z,11.30
2024-02-22T17:18:04.520Z,11.30
2024-02-22T17:20:49.997Z,11.30
2024-02-22T17:23:35.667Z,11.30
2024-02-22T17:26:21.163Z,11.30
2024-02-22T17:29:06.685Z,11.40
2024-02-22T17:31:52.280Z,11.40
2024-02-22T17:34:38.025Z,11.40
2024-02-22T17:37:25.878Z,11.50
2024-02-22T17:40:13.491Z,11.50
2024-02-22T17:42:59.184Z,11.40
2024-02-22T17:45:44.478Z,11.40
2024-02-22T17:48:30.742Z,11.40
2024-02-22T17:51:17.877Z,11.40
2024-02-22T17:54:03.554Z,11.40
2024-02-22T17:56:49.238Z,11.40
2024-02-22T17:59:39.586Z,11.30
2024-02-22T18:02:25.821Z,11.30
2024-02-22T18:05:12.823Z,11.30
2024-02-22T18:08:03.224Z,11.30
2024-02-22T18:10:48.937Z,11.30
2024-02-22T18:13:34.705Z,11.20
2024-02-22T18:16:20.277Z,11.10
2024-02-22T18:19:05.842Z,11.20
2024-02-22T18:21:51.429Z,11.10
2024-02-22T18:24:36.873Z,11.30
2024-02-22T18:27:22.397Z,11.20
2024-02-22T18:30:10.272Z,11.10
2024-02-22T18:32:55.410Z,11.20
2024-02-22T18:35:41.053Z,11.10
2024-02-22T18:38:26.694Z,11.10
2024-02-22T18:41:14.564Z,11.10
2024-02-22T18:44:04.150Z,11.10
2024-02-22T18:46:51.127Z,11.10
2024-02-22T18:49:36.776Z,11.10
2024-02-22T18:52:21.989Z,11.00
2024-02-22T18:55:08.094Z,10.90
2024-02-22T18:57:53.911Z,10.70
2024-02-22T19:00:39.337Z,10.70
2024-02-22T19:03:24.654Z,10.70
2024-02-22T19:06:10.180Z,10.80
2024-02-22T19:08:55.787Z,10.80
2024-02-22T19:11:41.412Z,10.90
2024-02-22T19:14:27.077Z,10.80
2024-02-22T19:17:12.693Z,10.80
2024-02-22T19:19:58.284Z,10.90
2024-02-22T19:22:44.621Z,10.80
2024-02-22T19:25:29.975Z,10.80
2024-02-22T19:28:16.932Z,10.70
2024-02-22T19:31:04.221Z,10.70
2024-02-22T19:33:50.400Z,10.70
2024-02-22T19:36:42.115Z,10.60
2024-02-22T19:39:31.212Z,10.70
2024-02-22T19:42:18.930Z,10.70
2024-02-22T19:45:04.642Z,10.70
2024-02-22T19:47:50.086Z,10.70
2024-02-22T19:50:38.115Z,10.70
2024-02-22T19:53:23.559Z,10.70
2024-02-22T19:56:09.148Z,10.70
2024-02-22T19:59:00.239Z,10.70
2024-02-22T20:01:47.059Z,10.80
2024-02-22T20:04:32.408Z,10.70
2024-02-22T20:07:18.102Z,10.70
2024-02-22T20:10:05.547Z,10.70
2024-02-22T20:12:50.960Z,10.70
2024-02-22T20:15:36.504Z,10.70
2024-02-22T20:18:21.954Z,10.70
2024-02-22T20:21:07.325Z,10.80
2024-02-22T20:23:53.651Z,10.70
2024-02-22T20:26:39.528Z,10.70
2024-02-22T20:29:25.033Z,10.70
2024-02-22T20:32:10.550Z,10.70
2024-02-22T20:35:04.514Z,10.80
2024-02-22T20:37:56.637Z,10.90
2024-02-22T20:40:42.285Z,11.00
2024-02-22T20:43:30.397Z,11.10
2024-02-22T20:46:15.904Z,11.10
2024-02-22T20:49:01.504Z,11.10
2024-02-22T20:51:46.771Z,11.10
2024-02-22T20:54:32.172Z,11.10
2024-02-22T20:57:17.698Z,11.10
2024-02-22T21:00:03.921Z,11.20
2024-02-22T21:02:49.189Z,11.30
2024-02-22T21:05:38.330Z,11.40
2024-02-22T21:08:23.836Z,11.50
2024-02-22T21:11:09.601Z,11.50
2024-02-22T21:13:55.543Z,11.50
2024-02-22T21:16:43.973Z,11.40
2024-02-22T21:19:29.299Z,11.30
2024-02-22T21:22:14.782Z,10.80
2024-02-22T21:25:00.502Z,10.70
2024-02-22T21:27:46.200Z,10.50
2024-02-22T21:30:31.533Z,10.30
2024-02-22T21:33:21.701Z,10.20
2024-02-22T21:36:08.624Z,10.10
2024-02-22T21:38:55.525Z,10.00
2024-02-22T21:41:41.023Z,9.80
2024-02-22T21:44:28.622Z,9.60
2024-02-22T21:47:15.087Z,9.60
2024-02-22T21:50:01.244Z,9.50
2024-02-22T21:52:46.692Z,9.40
2024-02-22T21:55:32.021Z,9.40
2024-02-22T21:58:17.686Z,9.40
2024-02-22T22:01:04.533Z,9.40
2024-02-22T22:03:49.872Z,9.40
2024-02-22T22:06:35.370Z,9.40
2024-02-22T22:09:20.836Z,9.30
2024-02-22T22:12:06.776Z,9.40
2024-02-22T22:14:52.023Z,9.40
2024-02-22T22:17:37.529Z,9.30
2024-02-22T22:20:23.213Z,9.20
2024-02-22T22:23:08.552Z,9.20
2024-02-22T22:25:54.099Z,9.20
2024-02-22T22:28:39.536Z,9.20
2024-02-22T22:31:24.986Z,9.30
2024-02-22T22:34:10.701Z,9.20
2024-02-22T22:36:56.278Z,9.20
2024-02-22T22:39:41.596Z,9.20
2024-02-22T22:42:27.171Z,9.20
2024-02-22T22:45:12.684Z,9.10
2024-02-22T22:47:59.847Z,9.00
2024-02-22T22:50:45.543Z,9.00
2024-02-22T22:53:31.210Z,9.10
2024-02-22T22:56:16.682Z,9.00
2024-02-22T22:59:02.393Z,9.00
2024-02-22T23:01:48.215Z,9.00
2024-02-22T23:04:36.154Z,8.90
2024-02-22T23:07:21.884Z,8.90
2024-02-22T23:10:08.119Z,8.80
2024-02-22T23:12:53.545Z,8.80
2024-02-22T23:15:39.150Z,8.80
2024-02-22T23:18:24.800Z,8.80
2024-02-22T23:21:10.012Z,8.70
2024-02-22T23:23:57.655Z,8.70
2024-02-22T23:26:43.165Z,8.70
2024-02-22T23:29:28.750Z,8.60
2024-02-22T23:32:14.337Z,8.60
2024-02-22T23:35:00.585Z,8.60
2024-02-22T23:37:46.840Z,8.60
2024-02-22T23:40:34.263Z,8.60
2024-02-22T23:43:23.076Z,8.50
2024-02-22T23:46:08.659Z,8.50
2024-02-22T23:48:54.506Z,8.60
2024-02-22T23:51:39.793Z,8.50
2024-02-22T23:54:25.441Z,8.50
2024-02-22T23:57:10.798Z,8.40
2024-02-22T23:59:56.404Z,8.50
